Time;durP1;ratioP1;P1;durP2;ratioP2;P2;SDS_P1;SDS_P2;PMS_P1;PMS_P2;Temp;Humidity;BMP_temperature;BMP_pressure;BME280_temperature;BME280_humidity;BME280_pressure;Samples;Min_cycle;Max_cycle;Signal;HPM_P1;HPM_P2
2021/01/10 00:01:34;;;;;;;31.05;17.63;;;1.00;99.90;;;;;;5037024;28;20032;-49
2021/01/10 00:04:00;;;;;;;35.58;17.70;;;1.00;99.90;;;;;;5039325;28;20029;-45
2021/01/10 00:06:25;;;;;;;35.92;18.40;;;1.00;99.90;;;;;;5038304;28;20083;-46
2021/01/10 00:08:51;;;;;;;38.20;19.17;;;1.00;99.90;;;;;;5037056;28;20046;-45
2021/01/10 00:11:16;;;;;;;36.50;18.08;;;1.00;99.90;;;;;;5040916;28;20411;-47
2021/01/10 00:13:42;;;;;;;39.58;19.73;;;1.00;99.90;;;;;;5035941;28;20181;-46
2021/01/10 00:16:07;;;;;;;39.13;20.48;;;1.00;99.90;;;;;;5043899;28;20096;-47
2021/01/10 00:18:33;;;;;;;34.72;17.50;;;1.00;99.90;;;;;;5036938;28;20100;-46
2021/01/10 00:20:58;;;;;;;40.00;19.88;;;1.10;99.90;;;;;;5038738;28;20032;-46
2021/01/10 00:23:23;;;;;;;35.90;18.55;;;1.10;99.90;;;;;;5039138;28;20060;-45
2021/01/10 00:25:51;;;;;;;34.60;17.83;;;1.10;99.90;;;;;;5036482;28;20029;-46
2021/01/10 00:28:17;;;;;;;35.78;17.92;;;1.00;99.90;;;;;;5040297;28;20025;-47
2021/01/10 00:30:42;;;;;;;34.75;18.02;;;1.00;99.90;;;;;;5035501;28;20030;-48
2021/01/10 00:33:08;;;;;;;35.17;17.92;;;1.00;99.90;;;;;;5040730;28;20021;-47
2021/01/10 00:35:33;;;;;;;36.67;18.58;;;1.00;99.90;;;;;;5035946;28;20509;-46
2021/01/10 00:37:59;;;;;;;33.92;17.67;;;1.10;99.90;;;;;;5038339;28;20032;-46
2021/01/10 00:40:26;;;;;;;35.00;17.58;;;1.10;99.90;;;;;;5038474;28;20437;-47
2021/01/10 00:42:54;;;;;;;37.25;17.92;;;1.10;99.90;;;;;;5036419;28;20022;-45
2021/01/10 00:45:20;;;;;;;33.92;17.65;;;1.00;99.90;;;;;;5038082;28;20460;-47
2021/01/10 00:47:46;;;;;;;34.08;17.98;;;1.10;99.90;;;;;;5038300;28;20021;-46
2021/01/10 00:50:12;;;;;;;40.95;20.25;;;1.10;99.90;;;;;;5058670;28;20078;-46
2021/01/10 00:52:38;;;;;;;38.20;19.15;;;1.10;99.90;;;;;;5068369;28;20059;-46
2021/01/10 00:55:06;;;;;;;37.25;18.65;;;1.10;99.90;;;;;;5068493;28;20056;-44
2021/01/10 00:57:31;;;;;;;35.38;18.75;;;1.10;99.90;;;;;;5068424;28;20028;-46
2021/01/10 00:59:56;;;;;;;40.90;20.50;;;1.10;99.90;;;;;;5068777;28;20020;-47
2021/01/10 01:02:22;;;;;;;35.35;18.00;;;1.10;99.90;;;;;;5068384;28;20028;-48
2021/01/10 01:04:47;;;;;;;37.28;18.65;;;1.10;99.90;;;;;;5067800;28;20437;-45
2021/01/10 01:07:13;;;;;;;39.30;20.55;;;1.10;99.90;;;;;;5068366;28;20075;-47
2021/01/10 01:09:39;;;;;;;34.03;17.92;;;1.00;99.90;;;;;;5068499;28;20029;-46
2021/01/10 01:12:05;;;;;;;34.78;18.35;;;1.00;99.90;;;;;;5068498;28;20032;-46
2021/01/10 01:14:30;;;;;;;37.80;18.23;;;1.10;99.90;;;;;;5068084;28;20440;-46
2021/01/10 01:16:56;;;;;;;36.58;18.45;;;1.10;99.90;;;;;;5057905;28;20029;-45
2021/01/10 01:19:22;;;;;;;37.97;19.17;;;1.10;99.90;;;;;;5068201;28;20021;-45
2021/01/10 01:21:54;;;;;;;36.08;19.33;;;1.10;99.90;;;;;;5067989;28;20025;-46
2021/01/10 01:24:21;;;;;;;34.25;18.65;;;1.10;99.90;;;;;;5068075;28;20032;-46
2021/01/10 01:26:47;;;;;;;32.63;17.35;;;1.10;99.90;;;;;;5068012;28;20029;-45
2021/01/10 01:29:13;;;;;;;35.70;18.20;;;1.10;99.90;;;;;;5068362;28;20497;-45
2021/01/10 01:31:39;;;;;;;36.40;18.55;;;1.10;99.90;;;;;;5067260;28;20032;-46
2021/01/10 01:34:04;;;;;;;34.08;18.08;;;1.10;99.90;;;;;;5068256;28;20028;-47
2021/01/10 01:36:30;;;;;;;37.20;18.42;;;1.10;99.90;;;;;;5065468;28;20024;-46
2021/01/10 01:38:57;;;;;;;42.88;21.10;;;1.10;99.90;;;;;;5067389;28;20016;-46
2021/01/10 01:41:24;;;;;;;32.38;16.90;;;1.20;99.90;;;;;;5067900;28;20013;-45
2021/01/10 01:43:50;;;;;;;34.03;17.80;;;1.10;99.90;;;;;;5067471;28;20511;-45
2021/01/10 01:46:26;;;;;;;39.97;19.98;;;1.10;99.90;;;;;;5066356;28;20024;-46
2021/01/10 01:48:51;;;;;;;33.33;18.65;;;1.10;99.90;;;;;;5055454;28;20037;-45
2021/01/10 01:51:19;;;;;;;33.15;17.65;;;1.10;99.90;;;;;;5066261;28;20112;-45
2021/01/10 01:53:45;;;;;;;36.25;19.70;;;1.20;99.90;;;;;;5067636;28;20037;-47
2021/01/10 01:56:10;;;;;;;32.88;18.23;;;1.10;99.90;;;;;;5066856;28;20040;-48
2021/01/10 01:58:36;;;;;;;36.00;18.92;;;1.10;99.90;;;;;;5067171;28;20033;-47
2021/01/10 02:01:02;;;;;;;40.53;18.70;;;1.10;99.90;;;;;;5067517;28;20012;-46
2021/01/10 02:03:38;;;;;;;31.27;17.48;;;1.10;99.90;;;;;;5067693;28;20027;-45
2021/01/10 02:06:22;;;;;;;32.47;18.50;;;1.10;99.90;;;;;;5067040;28;20373;-46
2021/01/10 02:08:53;;;;;;;33.17;17.38;;;1.10;99.90;;;;;;5067199;28;20031;-45
2021/01/10 02:11:21;;;;;;;31.45;17.92;;;1.10;99.90;;;;;;5067423;28;20032;-45
2021/01/10 02:13:47;;;;;;;35.72;19.92;;;1.10;99.90;;;;;;5067899;28;20021;-45
2021/01/10 02:16:14;;;;;;;32.78;17.52;;;1.10;99.90;;;;;;5057027;28;20029;-45
2021/01/10 02:18:42;;;;;;;35.25;18.30;;;1.10;99.90;;;;;;5066760;28;20147;-46
2021/01/10 02:21:09;;;;;;;32.35;18.13;;;1.10;99.90;;;;;;5067015;28;20024;-44
2021/01/10 02:23:38;;;;;;;32.13;18.75;;;1.10;99.90;;;;;;5066818;28;20025;-45
2021/01/10 02:26:05;;;;;;;32.47;18.52;;;1.10;99.90;;;;;;5066864;28;20037;-46
2021/01/10 02:28:32;;;;;;;33.70;18.63;;;1.10;99.90;;;;;;5067117;28;20033;-47
2021/01/10 02:31:00;;;;;;;30.60;17.63;;;1.20;99.90;;;;;;5067589;28;20021;-46
2021/01/10 02:33:26;;;;;;;40.33;19.23;;;1.20;99.90;;;;;;5066874;28;20381;-47
2021/01/10 02:35:53;;;;;;;31.33;17.02;;;1.20;99.90;;;;;;5066556;28;20536;-46
2021/01/10 02:38:35;;;;;;;29.67;16.98;;;1.20;99.90;;;;;;5066848;28;20028;-46
2021/01/10 02:41:21;;;;;;;28.58;17.40;;;1.20;99.90;;;;;;5067032;28;20023;-46
2021/01/10 02:44:06;;;;;;;28.67;16.27;;;1.20;99.90;;;;;;5067343;28;20024;-48
2021/01/10 02:46:34;;;;;;;27.05;16.15;;;1.10;99.90;;;;;;5065297;28;20832;-45
2021/01/10 02:49:00;;;;;;;27.02;16.17;;;1.10;99.90;;;;;;5055164;28;20028;-45
2021/01/10 02:51:27;;;;;;;30.48;17.23;;;1.20;99.90;;;;;;5070753;28;20025;-45
2021/01/10 02:53:52;;;;;;;29.23;16.70;;;1.20;99.90;;;;;;5071152;28;20417;-45
2021/01/10 02:56:18;;;;;;;28.23;16.50;;;1.10;99.90;;;;;;5064157;28;20040;-46
2021/01/10 02:58:44;;;;;;;33.35;17.70;;;1.10;99.90;;;;;;5070768;28;20033;-44
2021/01/10 03:01:12;;;;;;;29.30;16.63;;;1.10;99.90;;;;;;5071050;28;20512;-45
2021/01/10 03:03:38;;;;;;;32.10;18.17;;;1.10;99.90;;;;;;5070878;28;20046;-44
2021/01/10 03:06:04;;;;;;;26.17;14.93;;;1.00;99.90;;;;;;5070311;28;20537;-44
2021/01/10 03:08:30;;;;;;;22.98;14.75;;;1.10;99.90;;;;;;5070538;28;20028;-48
2021/01/10 03:10:56;;;;;;;29.30;17.48;;;1.00;99.90;;;;;;5070734;28;20470;-45
2021/01/10 03:13:22;;;;;;;32.90;16.45;;;1.00;99.90;;;;;;5070789;28;20036;-44
2021/01/10 03:15:48;;;;;;;27.98;15.95;;;1.00;99.90;;;;;;5070117;28;20039;-44
2021/01/10 03:18:21;;;;;;;31.33;17.38;;;1.00;99.90;;;;;;5070462;28;20029;-45
2021/01/10 03:20:48;;;;;;;31.00;17.58;;;1.00;99.90;;;;;;5070491;28;20440;-47
2021/01/10 03:23:17;;;;;;;27.83;16.40;;;1.00;99.90;;;;;;5068585;28;20032;-45
2021/01/10 03:25:43;;;;;;;24.00;15.65;;;1.00;99.90;;;;;;5065098;28;20044;-44
2021/01/10 03:28:09;;;;;;;25.75;15.75;;;1.00;99.90;;;;;;5064354;28;20056;-44
2021/01/10 03:30:35;;;;;;;27.85;16.63;;;1.00;99.90;;;;;;5070117;28;20016;-45
2021/01/10 03:33:01;;;;;;;25.17;15.07;;;1.00;99.90;;;;;;5070388;28;20051;-45
2021/01/10 03:35:26;;;;;;;24.90;14.65;;;1.00;99.90;;;;;;5069375;28;20120;-45
2021/01/10 03:37:52;;;;;;;26.52;15.68;;;1.10;99.90;;;;;;5070380;28;20548;-45
2021/01/10 03:40:18;;;;;;;29.50;16.65;;;1.10;99.90;;;;;;5070096;28;20034;-44
2021/01/10 03:42:44;;;;;;;24.85;14.30;;;1.10;99.90;;;;;;5070346;28;20120;-45
2021/01/10 03:45:11;;;;;;;25.25;14.07;;;1.10;99.90;;;;;;5069420;28;20473;-45
2021/01/10 03:47:37;;;;;;;27.48;14.55;;;1.10;99.90;;;;;;5067699;28;20047;-45
2021/01/10 03:50:07;;;;;;;23.73;14.07;;;1.10;99.90;;;;;;5056545;28;20059;-44
2021/01/10 03:52:33;;;;;;;24.17;15.05;;;1.10;99.90;;;;;;5068451;28;20119;-46
2021/01/10 03:54:59;;;;;;;24.20;14.68;;;1.10;99.90;;;;;;5069482;28;20433;-46
2021/01/10 03:57:24;;;;;;;24.55;15.30;;;1.10;99.90;;;;;;5064247;28;20079;-45
2021/01/10 03:59:50;;;;;;;26.13;16.10;;;1.10;99.90;;;;;;5069447;28;20025;-45
2021/01/10 04:02:15;;;;;;;27.13;15.90;;;1.00;99.90;;;;;;5059312;28;20323;-48
2021/01/10 04:04:41;;;;;;;26.33;15.18;;;1.10;99.90;;;;;;5065906;28;20035;-45
2021/01/10 04:07:07;;;;;;;24.27;15.20;;;1.10;99.90;;;;;;5070189;28;20025;-45
2021/01/10 04:09:33;;;;;;;30.60;17.02;;;1.10;99.90;;;;;;5069824;28;20029;-45
2021/01/10 04:11:59;;;;;;;25.50;15.10;;;1.10;99.90;;;;;;5069359;28;20036;-44
2021/01/10 04:14:24;;;;;;;26.48;14.98;;;1.20;99.90;;;;;;5069098;28;20020;-44
2021/01/10 04:16:51;;;;;;;28.42;15.85;;;1.20;99.90;;;;;;5069392;28;20024;-45
2021/01/10 04:19:17;;;;;;;27.17;15.55;;;1.20;99.90;;;;;;5069310;28;20070;-45
2021/01/10 04:21:42;;;;;;;28.65;17.25;;;1.20;99.90;;;;;;5069590;28;20029;-44
2021/01/10 04:24:09;;;;;;;29.20;17.45;;;1.20;99.90;;;;;;5069431;28;20021;-45
2021/01/10 04:26:39;;;;;;;29.50;16.83;;;1.20;99.90;;;;;;5057387;28;20040;-46
2021/01/10 04:29:05;;;;;;;30.05;16.88;;;1.20;99.90;;;;;;5069377;28;20155;-44
2021/01/10 04:31:31;;;;;;;28.42;17.60;;;1.20;99.90;;;;;;5069098;28;20107;-44
2021/01/10 04:33:56;;;;;;;30.63;17.73;;;1.10;99.90;;;;;;5068911;28;20032;-44
2021/01/10 04:36:22;;;;;;;29.88;17.15;;;1.10;99.90;;;;;;5067624;28;20441;-45
2021/01/10 04:38:47;;;;;;;32.47;17.80;;;1.10;99.90;;;;;;5064400;28;20044;-45
2021/01/10 04:41:17;;;;;;;32.03;17.67;;;1.10;99.90;;;;;;5061623;28;20452;-44
2021/01/10 04:43:43;;;;;;;29.42;16.58;;;1.10;99.90;;;;;;5060028;28;20146;-44
2021/01/10 04:46:09;;;;;;;31.40;17.70;;;1.10;99.90;;;;;;5057845;28;20036;-45
2021/01/10 04:48:35;;;;;;;28.88;16.67;;;1.10;99.90;;;;;;5063201;28;20482;-45
2021/01/10 04:51:01;;;;;;;31.83;17.75;;;1.10;99.90;;;;;;5066560;28;20028;-45
2021/01/10 04:53:27;;;;;;;32.90;18.08;;;1.10;99.90;;;;;;5064889;28;20047;-45
2021/01/10 04:55:58;;;;;;;29.38;16.85;;;1.10;99.90;;;;;;5063929;28;20040;-47
2021/01/10 04:58:27;;;;;;;;;;;1.10;99.90;;;;;;5065392;28;20025;-45
2021/01/10 05:00:53;;;;;;;31.40;16.95;;;1.10;99.90;;;;;;5066480;28;20001;-44
2021/01/10 05:03:23;;;;;;;39.55;19.17;;;1.10;99.90;;;;;;5065962;28;20253;-44
2021/01/10 05:05:49;;;;;;;23.92;13.18;;;1.20;99.90;;;;;;5062426;28;20142;-45
2021/01/10 05:08:15;;;;;;;34.25;18.58;;;1.10;99.90;;;;;;5062412;28;20040;-45
2021/01/10 05:10:40;;;;;;;34.38;18.10;;;1.10;99.90;;;;;;5062806;28;20086;-45
2021/01/10 05:13:07;;;;;;;32.58;18.10;;;1.20;99.90;;;;;;5061826;28;20094;-44
2021/01/10 05:15:35;;;;;;;33.28;18.05;;;1.10;99.90;;;;;;5065534;28;20043;-45
2021/01/10 05:18:01;;;;;;;36.47;18.88;;;1.00;99.90;;;;;;5065466;28;20024;-46
2021/01/10 05:20:30;;;;;;;35.60;18.98;;;1.00;99.90;;;;;;5057848;28;20315;-46
2021/01/10 05:22:55;;;;;;;35.92;20.08;;;0.90;99.90;;;;;;5062624;28;20036;-46
2021/01/10 05:25:21;;;;;;;33.35;18.95;;;0.90;99.90;;;;;;5058448;28;20055;-45
2021/01/10 05:27:49;;;;;;;37.90;21.42;;;0.90;99.90;;;;;;5062979;28;20509;-45
2021/01/10 05:30:15;;;;;;;35.72;18.75;;;0.90;99.90;;;;;;5062946;28;20100;-48
2021/01/10 05:32:41;;;;;;;39.35;20.20;;;0.90;99.90;;;;;;5065636;28;20029;-45
2021/01/10 05:35:07;;;;;;;38.17;19.58;;;0.90;99.90;;;;;;5063376;28;20036;-45
2021/01/10 05:37:33;;;;;;;40.75;20.10;;;0.90;99.90;;;;;;5048373;28;20021;-45
2021/01/10 05:39:58;;;;;;;34.30;18.40;;;0.90;99.90;;;;;;5062257;28;20443;-45
2021/01/10 05:42:29;;;;;;;36.30;20.00;;;0.90;99.90;;;;;;5060057;28;20037;-44
2021/01/10 05:44:55;;;;;;;36.83;19.83;;;0.90;99.90;;;;;;5061619;28;20489;-43
2021/01/10 05:47:21;;;;;;;36.47;19.65;;;0.90;99.90;;;;;;5056127;28;20025;-45
2021/01/10 05:49:53;;;;;;;34.25;19.92;;;0.90;99.90;;;;;;5064592;28;20059;-44
2021/01/10 05:52:20;;;;;;;39.10;20.40;;;0.90;99.90;;;;;;5061494;28;20056;-44
2021/01/10 05:54:48;;;;;;;33.95;18.73;;;0.90;99.90;;;;;;5033516;28;20029;-44
2021/01/10 05:57:15;;;;;;;34.25;18.55;;;0.90;99.90;;;;;;5034189;28;20341;-44
2021/01/10 05:59:48;;;;;;;36.35;19.33;;;0.90;99.90;;;;;;5034690;28;20049;-47
2021/01/10 06:02:30;;;;;;;34.42;18.35;;;0.90;99.90;;;;;;5032050;28;20536;-44
2021/01/10 06:05:18;;;;;;;34.40;20.02;;;1.00;99.90;;;;;;5032457;28;20039;-45
2021/01/10 06:07:46;;;;;;;36.90;19.38;;;1.00;99.90;;;;;;5035345;28;20032;-47
2021/01/10 06:10:12;;;;;;;36.70;20.15;;;1.00;99.90;;;;;;5041898;28;20323;-44
2021/01/10 06:12:39;;;;;;;34.50;19.05;;;1.00;99.90;;;;;;5033298;28;20032;-45
2021/01/10 06:15:09;;;;;;;41.83;21.67;;;0.90;99.90;;;;;;5032647;28;20041;-44
2021/01/10 06:17:46;;;;;;;35.37;20.10;;;0.90;99.90;;;;;;5030620;28;20501;-45
2021/01/10 06:20:31;;;;;;;38.42;20.75;;;0.90;99.90;;;;;;5031749;28;20390;-45
2021/01/10 06:22:58;;;;;;;35.50;19.35;;;0.90;99.90;;;;;;5034692;28;20009;-44
2021/01/10 06:25:25;;;;;;;40.83;21.25;;;0.90;99.90;;;;;;5033653;28;20503;-46
2021/01/10 06:28:13;;;;;;;38.25;20.13;;;0.90;99.90;;;;;;5037476;28;20288;-45
2021/01/10 06:31:01;;;;;;;39.15;20.40;;;0.90;99.90;;;;;;5039590;28;20017;-44
2021/01/10 06:33:31;;;;;;;40.28;21.45;;;1.00;99.90;;;;;;5035361;28;20021;-44
2021/01/10 06:36:07;;;;;;;27.65;13.95;;;0.90;99.90;;;;;;5030736;28;20439;-45
2021/01/10 06:38:35;;;;;;;39.53;20.15;;;1.00;99.90;;;;;;5035117;28;20043;-44
2021/01/10 06:41:09;;;;;;;35.90;19.67;;;1.00;99.90;;;;;;5031511;28;20022;-44
2021/01/10 06:43:37;;;;;;;36.47;18.63;;;1.00;99.90;;;;;;5035365;28;20309;-44
2021/01/10 06:46:05;;;;;;;37.40;20.35;;;1.00;99.90;;;;;;5031244;28;20544;-44
2021/01/10 06:48:31;;;;;;;33.90;18.58;;;1.00;99.90;;;;;;5040529;28;20491;-45
2021/01/10 06:51:01;;;;;;;35.85;20.05;;;1.10;99.90;;;;;;5062186;28;20020;-44
2021/01/10 06:53:26;;;;;;;40.65;22.08;;;1.10;99.90;;;;;;5067559;28;20128;-44
2021/01/10 06:55:52;;;;;;;38.53;19.75;;;1.00;99.90;;;;;;5060785;28;20468;-44
2021/01/10 06:58:17;;;;;;;37.10;20.60;;;1.00;99.90;;;;;;5038736;28;20047;-45
2021/01/10 07:00:52;;;;;;;35.85;18.52;;;1.00;99.90;;;;;;5066976;28;20021;-44
2021/01/10 07:03:18;;;;;;;42.45;19.70;;;0.90;99.90;;;;;;5066537;28;20104;-45
2021/01/10 07:05:56;;;;;;;42.78;21.42;;;0.90;99.90;;;;;;5066302;28;20212;-44
2021/01/10 07:08:36;;;;;;;38.25;20.50;;;0.90;99.90;;;;;;5066859;28;20419;-45
2021/01/10 07:11:20;;;;;;;41.65;21.83;;;0.80;99.90;;;;;;5065244;28;20044;-47
2021/01/10 07:13:45;;;;;;;47.60;22.67;;;0.80;99.90;;;;;;5041560;28;20489;-44
2021/01/10 07:16:22;;;;;;;37.47;20.55;;;0.70;99.90;;;;;;5059638;28;20067;-45
2021/01/10 07:18:52;;;;;;;53.30;22.80;;;0.60;99.90;;;;;;5059194;28;20036;-47
2021/01/10 07:21:56;;;;;;;43.75;21.80;;;0.60;99.90;;;;;;5062852;28;20100;-44
2021/01/10 07:24:26;;;;;;;37.33;20.58;;;0.50;99.90;;;;;;5040951;28;20078;-46
2021/01/10 07:26:56;;;;;;;40.85;20.27;;;0.50;99.90;;;;;;5061224;28;20059;-45
2021/01/10 07:29:42;;;;;;;42.00;21.53;;;0.40;99.90;;;;;;5062180;28;20535;-45
2021/01/10 07:32:15;;;;;;;46.42;21.67;;;0.30;99.90;;;;;;5050381;28;20075;-45
2021/01/10 07:34:46;;;;;;;44.38;20.95;;;0.30;99.90;;;;;;5057821;28;20029;-44
2021/01/10 07:37:15;;;;;;;44.63;22.45;;;0.30;99.90;;;;;;5062919;28;20417;-46
2021/01/10 07:39:58;;;;;;;45.38;21.67;;;0.30;99.90;;;;;;5067075;28;20021;-44
2021/01/10 07:42:29;;;;;;;42.72;20.08;;;0.20;99.90;;;;;;5064253;28;20032;-45
2021/01/10 07:45:00;;;;;;;41.10;20.65;;;0.20;99.90;;;;;;5063437;28;20020;-44
2021/01/10 07:47:31;;;;;;;44.00;21.13;;;0.20;99.90;;;;;;5059378;28;20041;-45
2021/01/10 07:49:59;;;;;;;41.08;20.90;;;0.10;99.90;;;;;;5065924;28;20390;-46
2021/01/10 07:52:45;;;;;;;42.47;22.92;;;0.10;99.90;;;;;;5065051;28;20025;-44
2021/01/10 07:55:20;;;;;;;44.70;21.75;;;0.10;99.90;;;;;;5064640;28;20523;-44
2021/01/10 07:57:52;;;;;;;47.38;21.60;;;0.10;99.90;;;;;;5063038;28;20357;-47
2021/01/10 08:00:20;;;;;;;42.38;21.42;;;0.10;99.90;;;;;;5069541;28;20028;-44
2021/01/10 08:02:53;;;;;;;45.28;21.25;;;0.10;99.90;;;;;;5062837;28;20044;-45
2021/01/10 08:05:24;;;;;;;38.25;18.77;;;0.20;99.90;;;;;;5063814;28;20020;-45
2021/01/10 08:07:55;;;;;;;44.05;20.80;;;0.20;99.90;;;;;;5050276;28;20070;-45
2021/01/10 08:10:22;;;;;;;44.25;20.83;;;0.20;99.90;;;;;;5039743;28;20080;-45
2021/01/10 08:12:48;;;;;;;44.30;19.98;;;0.20;99.90;;;;;;5045206;28;20112;-45
2021/01/10 08:15:14;;;;;;;38.45;20.02;;;0.10;99.90;;;;;;5039543;28;20642;-45
2021/01/10 08:17:39;;;;;;;44.08;20.30;;;0.10;99.90;;;;;;5045098;28;20035;-44
2021/01/10 08:20:07;;;;;;;44.83;20.30;;;0.20;99.90;;;;;;5041512;28;20029;-46
2021/01/10 08:22:33;;;;;;;45.80;22.00;;;0.30;99.90;;;;;;5043232;28;20016;-43
2021/01/10 08:25:00;;;;;;;42.20;21.50;;;0.20;99.90;;;;;;5042533;28;20608;-45
2021/01/10 08:27:25;;;;;;;41.05;20.42;;;0.30;99.90;;;;;;5043219;28;20020;-44
2021/01/10 08:29:52;;;;;;;39.67;20.75;;;0.30;99.90;;;;;;5044358;28;20044;-45
2021/01/10 08:32:20;;;;;;;36.72;19.58;;;0.30;99.90;;;;;;5044481;28;20112;-45
2021/01/10 08:34:51;;;;;;;40.85;20.27;;;0.30;99.90;;;;;;5043592;28;20504;-44
2021/01/10 08:37:20;;;;;;;40.40;20.58;;;0.40;99.90;;;;;;5039522;28;20455;-46
2021/01/10 08:40:02;;;;;;;40.08;19.83;;;0.60;99.90;;;;;;5044503;28;20028;-45
2021/01/10 08:42:29;;;;;;;37.90;18.55;;;0.60;99.90;;;;;;5039817;28;20183;-46
2021/01/10 08:44:54;;;;;;;40.97;20.00;;;0.70;99.90;;;;;;5044160;28;20543;-45
2021/01/10 08:47:20;;;;;;;36.42;18.02;;;0.80;99.90;;;;;;5037735;28;20029;-45
2021/01/10 08:49:57;;;;;;;35.63;18.45;;;0.90;99.90;;;;;;5053823;28;20054;-45
2021/01/10 08:52:22;;;;;;;37.45;19.00;;;1.00;99.90;;;;;;5068279;28;20029;-45
2021/01/10 08:54:51;;;;;;;36.42;19.85;;;1.10;99.90;;;;;;5063463;28;20044;-45
2021/01/10 08:57:17;;;;;;;36.78;19.55;;;1.10;99.90;;;;;;5048933;28;20032;-44
2021/01/10 08:59:43;;;;;;;37.95;19.20;;;1.10;99.90;;;;;;5045673;28;20021;-45
2021/01/10 09:02:09;;;;;;;34.30;18.77;;;1.30;99.90;;;;;;5049642;28;20505;-45
2021/01/10 09:04:42;;;;;;;35.67;17.15;;;1.40;99.90;;;;;;5059166;28;20365;-45
2021/01/10 09:07:11;;;;;;;37.53;20.75;;;1.40;99.90;;;;;;5065162;28;20019;-44
2021/01/10 09:09:56;;;;;;;36.08;19.63;;;1.50;99.90;;;;;;5063931;28;20070;-45
2021/01/10 09:12:41;;;;;;;38.58;18.45;;;1.50;99.90;;;;;;5066170;28;20048;-45
2021/01/10 09:15:22;;;;;;;33.88;17.70;;;1.60;99.90;;;;;;5060845;28;20017;-46
2021/01/10 09:17:56;;;;;;;32.33;17.33;;;1.70;99.90;;;;;;5061261;28;20016;-45
2021/01/10 09:20:27;;;;;;;33.83;17.92;;;1.80;99.90;;;;;;5059401;28;20016;-44
2021/01/10 09:22:55;;;;;;;35.95;17.95;;;1.90;99.90;;;;;;5064076;28;20028;-45
2021/01/10 09:25:21;;;;;;;36.53;18.15;;;2.00;99.90;;;;;;5061962;28;20048;-45
2021/01/10 09:28:06;;;;;;;32.88;18.48;;;2.10;99.90;;;;;;5064241;28;20489;-45
2021/01/10 09:30:32;;;;;;;32.05;17.13;;;2.10;99.90;;;;;;5064392;28;20447;-44
2021/01/10 09:32:59;;;;;;;34.13;18.55;;;2.00;99.90;;;;;;5065413;28;20041;-46
2021/01/10 09:35:24;;;;;;;35.33;19.05;;;2.10;99.90;;;;;;5059195;28;20021;-44
2021/01/10 09:37:50;;;;;;;34.85;19.02;;;2.20;99.90;;;;;;5065032;28;20333;-46
2021/01/10 09:40:17;;;;;;;33.95;17.60;;;2.30;99.90;;;;;;5063650;28;20579;-46
2021/01/10 09:42:47;;;;;;;35.67;19.48;;;2.30;99.90;;;;;;5065253;28;20304;-44
2021/01/10 09:45:15;;;;;;;33.80;18.13;;;2.30;99.90;;;;;;5061358;28;20505;-46
2021/01/10 09:47:41;;;;;;;32.63;17.60;;;2.20;99.90;;;;;;5055922;28;20467;-45
2021/01/10 09:50:15;;;;;;;39.15;19.73;;;2.20;99.90;;;;;;5056384;28;20087;-44
2021/01/10 09:52:52;;;;;;;34.28;19.58;;;2.10;99.90;;;;;;5067574;28;20064;-45
2021/01/10 09:55:25;;;;;;;36.13;19.30;;;2.10;99.90;;;;;;5065748;28;20214;-44
2021/01/10 09:57:51;;;;;;;37.58;19.15;;;2.10;99.90;;;;;;5063684;28;20060;-45
2021/01/10 10:00:17;;;;;;;38.25;18.50;;;2.10;99.90;;;;;;5067745;28;20025;-46
2021/01/10 10:02:44;;;;;;;35.33;18.63;;;2.10;99.90;;;;;;5066691;28;20031;-45
2021/01/10 10:05:22;;;;;;;37.40;19.77;;;2.10;99.90;;;;;;5042267;28;20449;-45
2021/01/10 10:07:50;;;;;;;36.35;19.58;;;2.20;99.90;;;;;;5044886;28;20025;-45
2021/01/10 10:10:22;;;;;;;36.33;18.90;;;2.30;99.90;;;;;;5041476;28;20036;-46
2021/01/10 10:13:05;;;;;;;37.90;19.88;;;2.30;99.90;;;;;;5044950;28;20029;-47
2021/01/10 10:15:54;;;;;;;42.85;20.40;;;2.40;99.90;;;;;;5049599;28;20059;-47
2021/01/10 10:18:23;;;;;;;41.08;21.40;;;2.60;99.90;;;;;;5054282;28;20061;-45
2021/01/10 10:20:49;;;;;;;36.65;18.58;;;2.70;99.90;;;;;;5061068;28;20013;-46
2021/01/10 10:23:15;;;;;;;40.70;20.30;;;2.80;99.90;;;;;;5058489;28;20113;-46
2021/01/10 10:25:42;;;;;;;35.22;18.33;;;3.00;99.90;;;;;;5056030;28;20132;-46
2021/01/10 10:28:08;;;;;;;37.58;20.25;;;3.30;99.90;;;;;;5040426;28;20029;-45
2021/01/10 10:30:34;;;;;;;37.05;19.63;;;3.20;99.90;;;;;;5034381;28;20032;-45
2021/01/10 10:33:01;;;;;;;37.03;19.42;;;3.00;99.90;;;;;;5045751;28;20040;-47
2021/01/10 10:35:26;;;;;;;31.15;18.23;;;2.90;99.90;;;;;;5043504;28;20505;-44
2021/01/10 10:37:52;;;;;;;40.90;19.98;;;3.00;99.90;;;;;;5045817;28;20055;-44
2021/01/10 10:40:18;;;;;;;38.75;19.98;;;2.80;99.90;;;;;;5044238;28;20028;-47
2021/01/10 10:42:44;;;;;;;40.88;20.58;;;2.60;99.90;;;;;;5045963;28;20382;-45
2021/01/10 10:45:10;;;;;;;39.92;19.30;;;2.50;99.90;;;;;;5044597;28;20036;-45
2021/01/10 10:47:36;;;;;;;36.85;19.20;;;2.40;99.90;;;;;;5042889;28;20025;-46
2021/01/10 10:50:06;;;;;;;32.28;17.00;;;2.40;99.90;;;;;;5054116;28;20025;-44
2021/01/10 10:52:32;;;;;;;36.88;18.48;;;2.50;99.90;;;;;;5066564;28;20036;-45
2021/01/10 10:54:58;;;;;;;40.10;17.88;;;2.50;99.90;;;;;;5065640;28;20039;-47
2021/01/10 10:57:23;;;;;;;38.13;19.05;;;2.50;99.90;;;;;;5056224;28;20021;-46
2021/01/10 10:59:50;;;;;;;36.58;18.35;;;2.60;99.90;;;;;;5065013;28;20377;-45
2021/01/10 11:02:15;;;;;;;40.75;19.45;;;2.60;99.90;;;;;;5066770;28;20027;-46
2021/01/10 11:04:42;;;;;;;33.17;17.88;;;2.60;99.90;;;;;;5065306;28;20400;-45
2021/01/10 11:07:08;;;;;;;37.45;18.27;;;2.60;99.90;;;;;;5064624;28;20321;-45
2021/01/10 11:09:34;;;;;;;33.10;17.58;;;2.70;99.90;;;;;;5052240;28;20060;-45
2021/01/10 11:11:59;;;;;;;35.88;19.23;;;2.80;99.90;;;;;;5069860;28;20067;-45
2021/01/10 11:14:25;;;;;;;34.83;18.27;;;2.90;99.90;;;;;;5064849;28;20078;-46
2021/01/10 11:16:52;;;;;;;35.85;18.83;;;3.00;99.90;;;;;;5070122;28;20035;-45
2021/01/10 11:19:19;;;;;;;32.20;17.50;;;3.20;99.90;;;;;;5069710;28;20025;-46
2021/01/10 11:21:49;;;;;;;34.08;18.92;;;3.60;99.90;;;;;;5068800;28;20055;-47
2021/01/10 11:24:16;;;;;;;40.58;19.50;;;3.60;99.90;;;;;;5068852;28;20473;-47
2021/01/10 11:26:43;;;;;;;33.33;16.98;;;3.60;99.90;;;;;;5065105;28;20550;-46
2021/01/10 11:29:10;;;;;;;38.92;18.70;;;3.60;99.90;;;;;;5056878;28;20059;-48
2021/01/10 11:31:36;;;;;;;36.15;19.05;;;3.60;99.90;;;;;;5052501;28;20024;-45
2021/01/10 11:34:09;;;;;;;34.70;18.38;;;3.70;99.90;;;;;;5064538;28;20033;-45
2021/01/10 11:36:36;;;;;;;40.67;20.10;;;3.80;99.90;;;;;;5066848;28;20024;-47
2021/01/10 11:39:02;;;;;;;34.90;19.58;;;3.80;99.90;;;;;;5033385;28;20406;-46
2021/01/10 11:41:28;;;;;;;39.10;18.77;;;3.70;99.90;;;;;;5032246;28;20025;-47
2021/01/10 11:43:54;;;;;;;38.95;19.90;;;3.60;99.90;;;;;;5046201;28;20033;-45
2021/01/10 11:47:01;;;;;;;38.88;21.00;;;3.60;99.90;;;;;;5065842;28;20029;-47
2021/01/10 11:49:28;;;;;;;38.60;20.23;;;3.60;99.90;;;;;;4998176;28;20062;-45
2021/01/10 11:51:55;;;;;;;37.88;19.02;;;3.60;99.90;;;;;;5001603;28;20422;-45
2021/01/10 11:54:20;;;;;;;37.00;19.60;;;3.50;99.90;;;;;;5049334;28;20041;-47
2021/01/10 11:56:47;;;;;;;38.13;18.73;;;3.40;99.90;;;;;;5065388;28;20032;-47
2021/01/10 11:59:14;;;;;;;37.22;19.90;;;3.50;99.90;;;;;;5064313;28;20093;-46
2021/01/10 12:01:41;;;;;;;37.60;19.27;;;3.50;99.90;;;;;;5063405;28;20029;-46
2021/01/10 12:04:08;;;;;;;39.22;21.05;;;3.50;99.90;;;;;;5064108;28;20031;-49
2021/01/10 12:06:36;;;;;;;34.22;18.30;;;3.50;99.90;;;;;;5065959;28;20419;-47
2021/01/10 12:09:04;;;;;;;32.75;18.80;;;3.50;99.90;;;;;;5069354;28;20058;-47
2021/01/10 12:11:30;;;;;;;35.15;17.70;;;3.60;99.90;;;;;;5065404;28;20024;-47
2021/01/10 12:13:55;;;;;;;38.17;18.55;;;3.70;99.90;;;;;;5064324;28;20025;-46
2021/01/10 12:16:21;;;;;;;35.15;18.70;;;3.80;99.90;;;;;;5063851;28;20031;-48
2021/01/10 12:18:47;;;;;;;35.05;18.15;;;3.90;99.90;;;;;;5064943;28;20052;-47
2021/01/10 12:21:16;;;;;;;38.53;18.60;;;4.10;99.90;;;;;;5067329;28;20021;-45
2021/01/10 12:23:42;;;;;;;31.98;18.70;;;4.10;99.90;;;;;;5067110;28;20020;-45
2021/01/10 12:26:12;;;;;;;38.45;20.08;;;3.90;99.90;;;;;;5068373;28;20016;-45
2021/01/10 12:28:38;;;;;;;43.13;21.20;;;3.90;99.90;;;;;;5061947;28;20020;-47
2021/01/10 12:31:05;;;;;;;34.90;19.13;;;3.90;99.90;;;;;;5052537;28;20167;-46
2021/01/10 12:33:35;;;;;;;38.67;19.42;;;3.70;99.90;;;;;;5057463;28;20056;-46
2021/01/10 12:36:02;;;;;;;33.40;18.05;;;3.70;99.90;;;;;;5065497;28;20024;-45
2021/01/10 12:38:27;;;;;;;33.30;18.20;;;3.70;99.90;;;;;;5061906;28;20029;-47
2021/01/10 12:40:53;;;;;;;34.97;18.38;;;3.90;99.90;;;;;;5064106;28;20017;-45
2021/01/10 12:43:19;;;;;;;33.55;18.00;;;4.00;99.90;;;;;;5067847;28;20029;-46
2021/01/10 12:45:47;;;;;;;35.88;19.17;;;4.20;99.90;;;;;;5065040;28;20048;-46